Time;durP1;ratioP1;P1;durP2;ratioP2;P2;SDS_P1;SDS_P2;PMS_P1;PMS_P2;Temp;Humidity;BMP_temperature;BMP_pressure;BME280_temperature;BME280_humidity;BME280_pressure;Samples;Min_cycle;Max_cycle;Signal;HPM_P1;HPM_P2
2023/03/05 00:02:12;;;;;;;10.45;2.53;;;;;;;3.98;100.00;102098.72;5253450;28;20029;-78
2023/03/05 00:04:43;;;;;;;9.00;2.10;;;;;;;3.97;100.00;102097.84;5252634;28;20036;-78
2023/03/05 00:07:14;;;;;;;8.68;2.60;;;;;;;3.96;100.00;102098.75;5251716;28;20394;-78
2023/03/05 00:09:46;;;;;;;7.65;2.33;;;;;;;3.93;100.00;102101.47;5245041;28;20092;-78
2023/03/05 00:12:17;;;;;;;7.38;2.38;;;;;;;3.88;100.00;102095.47;5253338;28;20055;-78
2023/03/05 00:14:48;;;;;;;13.50;2.50;;;;;;;3.87;100.00;102099.00;5250281;28;20090;-78
2023/03/05 00:17:20;;;;;;;11.82;3.55;;;;;;;3.84;100.00;102093.81;5249018;28;20028;-78
2023/03/05 00:19:51;;;;;;;8.27;2.70;;;;;;;3.82;100.00;102098.28;5251888;28;20049;-78
2023/03/05 00:22:22;;;;;;;10.05;2.60;;;;;;;3.80;100.00;102098.31;5250909;28;20051;-78
2023/03/05 00:24:54;;;;;;;11.48;2.67;;;;;;;3.78;100.00;102101.91;5250083;28;20028;-78
2023/03/05 00:27:25;;;;;;;8.95;2.70;;;;;;;3.73;100.00;102084.41;5251488;28;20099;-77
2023/03/05 00:29:56;;;;;;;11.88;2.47;;;;;;;3.77;100.00;102097.53;5247455;28;20416;-78
2023/03/05 00:32:28;;;;;;;10.07;2.33;;;;;;;3.77;100.00;102081.69;5253977;28;20410;-78
2023/03/05 00:34:59;;;;;;;12.80;2.67;;;;;;;3.73;100.00;102079.13;5253088;28;20098;-78
2023/03/05 00:37:31;;;;;;;15.07;2.90;;;;;;;3.72;100.00;102080.06;5252488;28;20415;-78
2023/03/05 00:40:03;;;;;;;11.23;2.58;;;;;;;3.70;100.00;102070.44;5247633;28;20029;-78
2023/03/05 00:42:37;;;;;;;11.05;2.72;;;;;;;3.70;100.00;102068.69;5249525;28;20380;-77
2023/03/05 00:45:09;;;;;;;12.85;3.00;;;;;;;3.71;100.00;102080.09;5246573;28;20292;-78
2023/03/05 00:47:40;;;;;;;8.88;2.20;;;;;;;3.71;100.00;102070.41;5251003;28;20052;-78
2023/03/05 00:50:12;;;;;;;10.45;2.47;;;;;;;3.71;100.00;102070.41;5247073;28;20663;-78
2023/03/05 00:52:43;;;;;;;9.65;2.15;;;;;;;3.74;100.00;102064.19;5251010;28;20028;-78
2023/03/05 00:55:14;;;;;;;7.82;2.00;;;;;;;3.72;100.00;102063.34;5245294;28;20036;-77
2023/03/05 00:57:46;;;;;;;11.65;2.97;;;;;;;3.73;100.00;102062.44;5245689;28;20079;-77
2023/03/05 01:00:17;;;;;;;9.18;2.38;;;;;;;3.73;100.00;102063.31;5245922;28;20475;-78
2023/03/05 01:02:48;;;;;;;8.93;2.38;;;;;;;3.73;100.00;102065.94;5249535;28;20041;-77
2023/03/05 01:05:20;;;;;;;9.63;2.83;;;;;;;3.67;100.00;102050.28;5249603;28;20086;-78
2023/03/05 01:07:52;;;;;;;12.00;2.55;;;;;;;3.64;100.00;102055.63;5250387;28;20040;-78
2023/03/05 01:10:28;;;;;;;12.50;3.63;;;;;;;3.68;100.00;102056.41;5250471;28;20032;-78
2023/03/05 01:12:59;;;;;;;12.93;2.75;;;;;;;3.67;100.00;102049.41;5249739;28;20048;-78
2023/03/05 01:15:30;;;;;;;10.95;2.78;;;;;;;3.65;100.00;102046.81;5248192;28;20025;-78
2023/03/05 01:18:01;;;;;;;8.40;2.72;;;;;;;3.64;100.00;102045.06;5251930;28;20044;-77
2023/03/05 01:20:33;;;;;;;12.73;3.40;;;;;;;3.71;100.00;102043.16;5244890;28;20115;-78
2023/03/05 01:23:04;;;;;;;11.18;3.22;;;;;;;3.63;100.00;102034.59;5249182;28;20087;-78
2023/03/05 01:25:36;;;;;;;13.30;2.95;;;;;;;3.60;100.00;102032.03;5246716;28;20533;-78
2023/03/05 01:28:07;;;;;;;13.88;3.20;;;;;;;3.62;100.00;102038.13;5245911;28;20045;-78
2023/03/05 01:30:39;;;;;;;9.82;2.35;;;;;;;3.59;100.00;102033.81;5247963;28;20071;-77
2023/03/05 01:33:10;;;;;;;14.85;2.83;;;;;;;3.58;100.00;102028.56;5248474;28;20043;-78
2023/03/05 01:35:44;;;;;;;11.48;2.80;;;;;;;3.56;100.00;102022.47;5249058;28;20037;-78
2023/03/05 01:38:16;;;;;;;11.95;2.80;;;;;;;3.54;100.00;102020.72;5250746;28;20044;-78
2023/03/05 01:40:47;;;;;;;11.77;2.67;;;;;;;3.51;100.00;102014.69;5248399;28;20048;-78
2023/03/05 01:43:27;;;;;;;11.85;2.72;;;;;;;3.52;100.00;102004.06;5249398;28;20049;-78
2023/03/05 01:46:16;;;;;;;9.65;2.35;;;;;;;3.51;100.00;102005.00;5247520;28;20079;-77
2023/03/05 01:49:00;;;;;;;10.30;2.42;;;;;;;3.49;100.00;102001.53;5245954;28;20025;-78
2023/03/05 01:51:39;;;;;;;8.13;2.60;;;;;;;3.47;100.00;101999.84;5247695;28;20087;-78
2023/03/05 01:54:14;;;;;;;10.05;2.30;;;;;;;3.47;100.00;101986.63;5249287;28;20743;-78
2023/03/05 01:56:47;;;;;;;10.35;2.78;;;;;;;3.44;100.00;101989.38;5248736;28;20033;-78
2023/03/05 01:59:22;;;;;;;9.48;2.30;;;;;;;3.44;100.00;101981.47;5249530;28;20542;-78
2023/03/05 02:01:54;;;;;;;;;;;;;;;3.49;100.00;101982.19;5244593;28;20116;-78
2023/03/05 02:04:36;;;;;;;10.90;2.08;;;;;;;3.44;100.00;101978.84;5249636;28;20538;-77
2023/03/05 02:07:09;;;;;;;7.75;2.15;;;;;;;3.43;100.00;101969.16;5251799;28;20604;-78
2023/03/05 02:09:41;;;;;;;9.93;2.13;;;;;;;3.42;100.00;101968.31;5246556;28;20029;-78
2023/03/05 02:12:13;;;;;;;10.63;2.17;;;;;;;3.40;100.00;101967.50;5248952;28;20641;-78
2023/03/05 02:14:48;;;;;;;8.48;2.05;;;;;;;3.38;100.00;101961.41;5253648;28;20024;-77
2023/03/05 02:17:19;;;;;;;10.02;2.50;;;;;;;3.36;100.00;101955.31;5248786;28;20463;-78
2023/03/05 02:19:53;;;;;;;9.50;2.20;;;;;;;3.33;100.00;101948.31;5248762;28;20031;-78
2023/03/05 02:22:24;;;;;;;9.07;2.40;;;;;;;3.37;100.00;101954.38;5247547;28;20499;-78
2023/03/05 02:24:56;;;;;;;12.05;2.90;;;;;;;3.36;100.00;101947.41;5245728;28;20121;-78
2023/03/05 02:27:34;;;;;;;10.38;2.25;;;;;;;3.44;100.00;101937.47;5250029;28;20662;-78
2023/03/05 02:30:06;;;;;;;8.13;1.80;;;;;;;3.42;100.00;101949.00;5243853;28;20174;-78
2023/03/05 02:32:37;;;;;;;8.27;2.05;;;;;;;3.41;100.00;101950.75;5248688;28;20502;-78
2023/03/05 02:35:09;;;;;;;9.70;2.30;;;;;;;3.40;100.00;101942.91;5247348;28;20033;-78
2023/03/05 02:37:40;;;;;;;11.07;2.58;;;;;;;3.38;100.00;101944.72;5245938;28;20035;-77
2023/03/05 02:40:12;;;;;;;8.18;2.60;;;;;;;3.35;100.00;101940.38;5248963;28;20079;-78
2023/03/05 02:42:44;;;;;;;8.15;2.00;;;;;;;3.34;100.00;101942.16;5246788;28;20040;-78
2023/03/05 02:45:16;;;;;;;9.60;2.03;;;;;;;3.44;100.00;101932.19;5249240;28;20554;-77
2023/03/05 02:47:47;;;;;;;7.93;2.40;;;;;;;3.39;100.00;101926.19;5248116;28;20452;-78
2023/03/05 02:50:18;;;;;;;8.13;2.47;;;;;;;3.49;100.00;101932.06;5248408;28;20072;-78
2023/03/05 02:52:50;;;;;;;10.20;2.58;;;;;;;3.38;100.00;101913.06;5246391;28;20621;-78
2023/03/05 02:55:21;;;;;;;7.88;2.20;;;;;;;3.36;100.00;101918.38;5244394;28;20127;-78
2023/03/05 02:57:52;;;;;;;10.52;2.30;;;;;;;3.36;100.00;101913.09;5248592;28;20137;-78
2023/03/05 03:00:25;;;;;;;12.25;2.28;;;;;;;3.35;100.00;101903.44;5247973;28;20021;-78
2023/03/05 03:02:56;;;;;;;7.13;2.35;;;;;;;3.41;100.00;101915.59;5246796;28;20036;-78
2023/03/05 03:05:27;;;;;;;9.20;2.67;;;;;;;3.34;100.00;101907.88;5249068;28;20462;-78
2023/03/05 03:07:59;;;;;;;10.23;2.85;;;;;;;3.34;100.00;101901.72;5245704;28;20368;-78
2023/03/05 03:10:30;;;;;;;10.48;2.90;;;;;;;3.36;100.00;101902.56;5248954;28;20411;-78
2023/03/05 03:13:02;;;;;;;10.32;2.63;;;;;;;3.39;100.00;101894.53;5245347;28;20120;-78
2023/03/05 03:15:34;;;;;;;9.60;2.72;;;;;;;3.47;100.00;101896.94;5245186;28;20563;-77
2023/03/05 03:18:05;;;;;;;10.63;2.78;;;;;;;3.37;100.00;101890.22;5252813;28;20027;-78
2023/03/05 03:20:38;;;;;;;10.98;2.85;;;;;;;3.34;100.00;101897.31;5248540;28;20574;-78
2023/03/05 03:23:09;;;;;;;10.52;2.80;;;;;;;3.29;100.00;101887.81;5244930;28;20029;-77
2023/03/05 03:25:40;;;;;;;10.93;2.55;;;;;;;3.27;100.00;101885.19;5248660;28;20051;-78
2023/03/05 03:28:11;;;;;;;11.82;3.00;;;;;;;3.23;100.00;101883.56;5245370;28;20049;-77
2023/03/05 03:30:43;;;;;;;15.10;3.55;;;;;;;3.20;100.00;101866.97;5242870;28;20083;-78
2023/03/05 03:33:16;;;;;;;9.52;2.95;;;;;;;3.17;100.00;101873.22;5248752;28;20029;-77
2023/03/05 03:35:48;;;;;;;9.13;3.35;;;;;;;3.16;100.00;101865.34;5250027;28;20395;-77
2023/03/05 03:38:19;;;;;;;13.07;3.33;;;;;;;3.29;100.00;101861.44;5244586;28;20057;-77
2023/03/05 03:40:50;;;;;;;10.25;2.95;;;;;;;3.30;100.00;101857.91;5244697;28;20116;-77
2023/03/05 03:43:22;;;;;;;14.38;3.45;;;;;;;3.27;100.00;101848.28;5246036;28;20529;-77
2023/03/05 03:45:53;;;;;;;8.77;3.28;;;;;;;3.17;100.00;101852.13;5246668;28;20122;-77
2023/03/05 03:48:24;;;;;;;14.50;4.07;;;;;;;3.14;100.00;101850.44;5248989;28;20033;-77
2023/03/05 03:50:55;;;;;;;12.63;3.28;;;;;;;3.13;100.00;101851.34;5253698;28;20067;-77
2023/03/05 03:53:27;;;;;;;14.00;3.22;;;;;;;3.12;100.00;101854.00;5246344;28;20031;-77
2023/03/05 03:55:58;;;;;;;13.18;3.63;;;;;;;3.09;100.00;101854.13;5247727;28;20040;-77
2023/03/05 03:58:30;;;;;;;11.43;3.88;;;;;;;3.08;100.00;101850.59;5251276;28;20411;-78
2023/03/05 04:01:01;;;;;;;8.80;3.80;;;;;;;3.05;100.00;101849.81;5250071;28;20040;-77
2023/03/05 04:03:32;;;;;;;13.70;4.35;;;;;;;3.02;100.00;101847.28;5242550;28;20033;-77
2023/03/05 04:06:04;;;;;;;10.65;4.03;;;;;;;3.00;100.00;101836.78;5245071;28;21507;-77
2023/03/05 04:08:35;;;;;;;11.65;4.10;;;;;;;3.00;100.00;101838.56;5246859;28;20025;-77
2023/03/05 04:11:07;;;;;;;12.18;4.40;;;;;;;2.99;100.00;101836.81;5247074;28;20029;-77
2023/03/05 04:13:38;;;;;;;12.38;4.18;;;;;;;2.98;100.00;101837.75;5248120;28;20107;-77
2023/03/05 04:16:10;;;;;;;11.43;4.65;;;;;;;2.97;100.00;101836.00;5245402;28;20732;-77
2023/03/05 04:18:42;;;;;;;12.77;4.78;;;;;;;2.93;100.00;101833.47;5248856;28;20049;-77
2023/03/05 04:21:13;;;;;;;16.48;4.70;;;;;;;2.96;100.00;101826.38;5248457;28;20120;-77
2023/03/05 04:23:44;;;;;;;15.52;4.60;;;;;;;2.92;100.00;101821.19;5242817;28;20025;-77
2023/03/05 04:26:16;;;;;;;13.95;4.57;;;;;;;2.93;100.00;101820.28;5250331;28;20060;-77
2023/03/05 04:28:48;;;;;;;11.63;4.65;;;;;;;2.96;100.00;101815.84;5245000;28;20499;-77
2023/03/05 04:31:19;;;;;;;12.68;4.30;;;;;;;2.96;100.00;101813.19;5247179;28;20601;-77
2023/03/05 04:33:50;;;;;;;14.68;4.90;;;;;;;2.93;100.00;101817.66;5246500;28;20379;-77
2023/03/05 04:36:22;;;;;;;10.05;3.95;;;;;;;2.92;100.00;101808.00;5248671;28;20255;-77
2023/03/05 04:38:53;;;;;;;14.65;4.38;;;;;;;2.88;100.00;101814.28;5245408;28;20033;-77
2023/03/05 04:41:24;;;;;;;15.07;5.13;;;;;;;2.88;100.00;101813.41;5248936;28;20044;-77
2023/03/05 04:43:56;;;;;;;14.50;4.90;;;;;;;2.92;100.00;101813.28;5244504;28;20090;-77
2023/03/05 04:46:27;;;;;;;14.48;4.93;;;;;;;2.87;100.00;101804.63;5246358;28;20032;-77
2023/03/05 04:48:58;;;;;;;12.65;5.22;;;;;;;2.90;100.00;101807.19;5252203;28;20395;-77
2023/03/05 04:51:30;;;;;;;16.90;5.18;;;;;;;2.89;100.00;101810.72;5251133;28;20053;-77
2023/03/05 04:54:01;;;;;;;16.00;4.47;;;;;;;2.87;100.00;101801.13;5248254;28;20029;-77
2023/03/05 04:56:33;;;;;;;17.15;5.57;;;;;;;2.88;100.00;101797.59;5249370;28;20029;-77
2023/03/05 04:59:04;;;;;;;15.82;5.50;;;;;;;2.86;100.00;101795.00;5247095;28;20051;-77
2023/03/05 05:01:36;;;;;;;14.73;5.03;;;;;;;2.84;100.00;101791.56;5240102;28;20108;-77
2023/03/05 05:04:07;;;;;;;16.17;6.63;;;;;;;2.87;100.00;101799.34;5241478;28;20033;-77
2023/03/05 05:06:38;;;;;;;12.15;5.70;;;;;;;2.84;100.00;101788.03;5247565;28;20033;-77
2023/03/05 05:09:10;;;;;;;11.77;5.60;;;;;;;2.82;100.00;101790.75;5252876;28;20036;-77
2023/03/05 05:11:41;;;;;;;16.48;5.88;;;;;;;2.86;100.00;101783.59;5250349;28;20040;-77
2023/03/05 05:14:12;;;;;;;13.95;6.13;;;;;;;2.84;100.00;101783.66;5248729;28;20598;-77
2023/03/05 05:16:44;;;;;;;11.50;5.65;;;;;;;2.86;100.00;101783.59;5246983;28;20033;-77
2023/03/05 05:19:15;;;;;;;12.48;5.97;;;;;;;2.84;100.00;101781.00;5247800;28;20026;-77
2023/03/05 05:21:47;;;;;;;16.40;7.03;;;;;;;2.83;100.00;101779.28;5254280;28;20087;-77
2023/03/05 05:24:18;;;;;;;12.60;5.95;;;;;;;2.85;100.00;101777.44;5249276;28;20029;-77
2023/03/05 05:26:50;;;;;;;14.50;6.43;;;;;;;2.85;100.00;101774.81;5253151;28;20083;-77
2023/03/05 05:29:21;;;;;;;12.38;6.57;;;;;;;2.84;100.00;101778.38;5247277;28;20053;-78
2023/03/05 05:31:53;;;;;;;13.63;6.32;;;;;;;2.85;100.00;101777.44;5247330;28;20044;-77
2023/03/05 05:34:24;;;;;;;12.75;6.75;;;;;;;2.87;100.00;101774.78;5248981;28;20025;-77
2023/03/05 05:36:56;;;;;;;14.27;7.07;;;;;;;2.87;100.00;101769.50;5250631;28;20077;-78
2023/03/05 05:39:27;;;;;;;16.02;7.28;;;;;;;2.85;100.00;101772.19;5251937;28;20033;-77
2023/03/05 05:41:58;;;;;;;15.60;6.68;;;;;;;2.83;100.00;101762.59;5252206;28;20529;-77
2023/03/05 05:44:30;;;;;;;12.93;7.00;;;;;;;2.80;100.00;101763.56;5251381;28;20067;-77
2023/03/05 05:47:01;;;;;;;16.00;7.35;;;;;;;2.81;100.00;101767.06;5243448;28;20036;-77
2023/03/05 05:49:32;;;;;;;13.93;7.50;;;;;;;2.83;100.00;101767.88;5249830;28;20037;-78
2023/03/05 05:52:04;;;;;;;17.10;7.93;;;;;;;2.82;100.00;101774.94;5249477;28;20124;-78
2023/03/05 05:54:36;;;;;;;15.98;7.35;;;;;;;2.83;100.00;101767.88;5244651;28;21623;-78
2023/03/05 05:57:07;;;;;;;15.07;7.60;;;;;;;2.90;100.00;101762.38;5249395;28;20040;-78
2023/03/05 05:59:39;;;;;;;17.08;7.80;;;;;;;2.88;100.00;101758.94;5249283;28;20033;-78
2023/03/05 06:02:10;;;;;;;14.32;7.15;;;;;;;2.86;100.00;101754.63;5247734;28;20065;-78
2023/03/05 06:04:41;;;;;;;18.70;7.28;;;;;;;2.85;100.00;101755.50;5245315;28;20484;-78
2023/03/05 06:07:13;;;;;;;16.42;7.50;;;;;;;2.83;100.00;101746.78;5248618;28;20475;-78
2023/03/05 06:09:44;;;;;;;15.30;7.95;;;;;;;2.79;100.00;101743.38;5247735;28;20281;-78
2023/03/05 06:12:15;;;;;;;14.95;7.05;;;;;;;2.78;100.00;101741.66;5250622;28;20025;-78
2023/03/05 06:14:47;;;;;;;15.48;7.28;;;;;;;2.80;100.00;101736.31;5246971;28;20039;-78
2023/03/05 06:17:18;;;;;;;14.00;7.75;;;;;;;2.81;100.00;101738.06;5248814;28;20102;-77
2023/03/05 06:19:52;;;;;;;15.23;7.93;;;;;;;2.93;100.00;101735.06;5249941;28;20037;-78
2023/03/05 06:22:24;;;;;;;15.07;7.65;;;;;;;2.81;100.00;101733.66;5252561;28;20123;-78
2023/03/05 06:24:55;;;;;;;14.27;7.75;;;;;;;2.83;100.00;101739.75;5246675;28;20179;-78
2023/03/05 06:27:26;;;;;;;16.02;7.53;;;;;;;2.83;100.00;101729.19;5247904;28;20056;-78
2023/03/05 06:29:58;;;;;;;17.33;9.07;;;;;;;2.83;100.00;101746.78;5244483;28;20073;-78
2023/03/05 06:32:29;;;;;;;13.00;7.50;;;;;;;2.81;100.00;101741.56;5271779;28;20029;-78
2023/03/05 06:35:01;;;;;;;13.98;8.00;;;;;;;2.82;100.00;101735.41;5244240;28;20028;-78
2023/03/05 06:37:32;;;;;;;15.15;7.53;;;;;;;2.81;100.00;101740.72;5246153;28;20450;-78
2023/03/05 06:40:04;;;;;;;15.23;7.63;;;;;;;2.79;100.00;101743.38;5243573;28;20017;-78
2023/03/05 06:42:35;;;;;;;15.75;8.02;;;;;;;2.81;100.00;101736.28;5245881;28;20036;-78
2023/03/05 06:45:08;;;;;;;16.83;7.90;;;;;;;2.80;100.00;101739.84;5243903;28;20071;-77
2023/03/05 06:47:39;;;;;;;15.23;7.35;;;;;;;2.81;100.00;101732.78;5250021;28;20364;-77
2023/03/05 06:50:10;;;;;;;20.48;8.93;;;;;;;2.86;100.00;101742.28;5243099;28;20033;-78
2023/03/05 06:52:42;;;;;;;12.98;6.75;;;;;;;2.81;100.00;101736.28;5246012;28;20033;-78
2023/03/05 06:55:13;;;;;;;14.80;6.25;;;;;;;2.83;100.00;101739.75;5242071;28;20032;-77
2023/03/05 06:57:44;;;;;;;10.95;6.15;;;;;;;2.90;100.00;101738.66;5248550;28;20116;-77
2023/03/05 07:00:16;;;;;;;12.43;6.45;;;;;;;2.85;100.00;101737.91;5244315;28;20021;-78
2023/03/05 07:02:47;;;;;;;10.63;5.72;;;;;;;2.86;100.00;101739.66;5245281;28;20041;-78
2023/03/05 07:05:19;;;;;;;10.88;5.57;;;;;;;2.84;100.00;101744.13;5248300;28;20652;-77
2023/03/05 07:07:50;;;;;;;13.15;6.43;;;;;;;2.85;100.00;101744.97;5246737;28;20527;-77
2023/03/05 07:10:21;;;;;;;9.75;5.10;;;;;;;2.86;100.00;101741.44;5243218;28;20387;-78
2023/03/05 07:12:53;;;;;;;11.15;5.57;;;;;;;2.87;100.00;101743.16;5246975;28;20826;-78
2023/03/05 07:15:24;;;;;;;9.88;5.40;;;;;;;2.87;100.00;101736.09;5247696;28;20087;-77
2023/03/05 07:17:55;;;;;;;9.20;5.45;;;;;;;3.02;100.00;101734.78;5247056;28;20107;-77
2023/03/05 07:20:26;;;;;;;10.88;5.45;;;;;;;3.01;100.00;101735.69;5244638;28;20032;-77
2023/03/05 07:22:58;;;;;;;11.65;5.20;;;;;;;3.05;100.00;101731.16;5248428;28;20372;-77
2023/03/05 07:25:29;;;;;;;11.70;5.40;;;;;;;3.07;100.00;101724.09;5243441;28;20491;-78
2023/03/05 07:28:02;;;;;;;12.07;5.50;;;;;;;3.14;100.00;101725.63;5249133;28;20416;-77
2023/03/05 07:30:33;;;;;;;12.85;5.47;;;;;;;3.19;100.00;101714.94;5243940;28;20033;-77
2023/03/05 07:33:05;;;;;;;10.27;5.47;;;;;;;3.23;100.00;101720.06;5243602;28;20028;-77
2023/03/05 07:35:39;;;;;;;9.20;5.35;;;;;;;3.27;100.00;101721.69;5241699;28;20758;-77
2023/03/05 07:38:10;;;;;;;13.43;5.55;;;;;;;3.30;100.00;101712.84;5245478;28;20025;-78
2023/03/05 07:40:42;;;;;;;8.93;5.75;;;;;;;3.32;100.00;101718.91;5248773;28;20379;-77
2023/03/05 07:43:13;;;;;;;9.27;4.55;;;;;;;3.33;100.00;101718.00;5246865;28;20395;-77
2023/03/05 07:45:45;;;;;;;12.35;4.45;;;;;;;3.37;100.00;101716.97;5243272;28;20087;-77
2023/03/05 07:48:19;;;;;;;8.30;4.82;;;;;;;3.46;100.00;101721.97;5252208;28;20433;-77
2023/03/05 07:51:00;;;;;;;10.07;4.03;;;;;;;3.45;100.00;101719.38;5250099;28;20040;-77
2023/03/05 07:53:32;;;;;;;7.68;3.60;;;;;;;3.47;100.00;101725.44;5243532;28;20119;-77
2023/03/05 07:56:04;;;;;;;8.10;4.40;;;;;;;3.48;100.00;101720.13;5245596;28;20394;-77
2023/03/05 07:58:36;;;;;;;7.43;3.80;;;;;;;3.53;100.00;101710.28;5239540;28;20465;-77
2023/03/05 08:01:13;;;;;;;7.93;3.72;;;;;;;3.56;100.00;101716.38;5249229;28;21323;-78
2023/03/05 08:03:44;;;;;;;9.65;3.90;;;;;;;3.61;100.00;101715.31;5249383;28;20028;-77
2023/03/05 08:06:15;;;;;;;7.18;3.30;;;;;;;3.61;100.00;101707.41;5250127;28;20032;-77
2023/03/05 08:08:47;;;;;;;7.32;2.60;;;;;;;3.63;100.00;101705.56;5247088;28;20074;-77
2023/03/05 08:11:18;;;;;;;7.03;3.20;;;;;;;3.68;100.00;101705.41;5242716;28;20379;-78
2023/03/05 08:13:49;;;;;;;7.10;3.10;;;;;;;3.71;100.00;101702.69;5251844;28;20493;-77
2023/03/05 08:16:21;;;;;;;6.85;3.00;;;;;;;3.78;100.00;101703.31;5254985;28;20032;-77
2023/03/05 08:18:56;;;;;;;7.28;3.60;;;;;;;3.79;100.00;101705.06;5252627;28;20302;-77
2023/03/05 08:21:32;;;;;;;6.72;3.35;;;;;;;3.80;100.00;101699.72;5246870;28;20064;-77
2023/03/05 08:24:06;;;;;;;6.03;3.72;;;;;;;3.83;100.00;101696.97;5239979;28;20090;-77
2023/03/05 08:26:39;;;;;;;7.07;2.70;;;;;;;3.84;100.00;101697.84;5249929;28;20033;-77
2023/03/05 08:29:10;;;;;;;8.68;3.40;;;;;;;3.83;100.00;101694.31;5242344;28;20992;-77
2023/03/05 08:31:45;;;;;;;7.15;2.90;;;;;;;3.84;100.00;101688.13;5229809;28;20036;-77
2023/03/05 08:34:16;;;;;;;7.38;3.15;;;;;;;3.88;100.00;101686.25;5252653;28;20075;-77
2023/03/05 08:36:48;;;;;;;6.30;2.80;;;;;;;3.90;100.00;101689.69;5253871;28;20028;-77
2023/03/05 08:39:19;;;;;;;6.32;3.05;;;;;;;3.99;100.00;101684.09;5249445;28;20468;-78
2023/03/05 08:41:50;;;;;;;7.65;3.33;;;;;;;4.06;100.00;101677.66;5243209;28;20466;-78
2023/03/05 08:44:21;;;;;;;6.95;3.20;;;;;;;4.16;100.00;101680.88;5262758;28;20028;-78
2023/03/05 08:46:53;;;;;;;5.90;2.70;;;;;;;4.22;100.00;101674.47;5244932;28;20072;-78
2023/03/05 08:49:24;;;;;;;6.50;3.10;;;;;;;4.27;100.00;101672.53;5255571;28;20037;-78
2023/03/05 08:51:55;;;;;;;6.93;2.95;;;;;;;4.26;100.00;101670.81;5252883;28;20033;-78
2023/03/05 08:54:27;;;;;;;8.00;2.92;;;;;;;4.38;100.00;101666.88;5251649;28;20039;-78
2023/03/05 08:56:58;;;;;;;5.63;2.72;;;;;;;4.40;100.00;101665.03;5246025;28;20033;-78
2023/03/05 08:59:30;;;;;;;6.13;3.05;;;;;;;4.39;100.00;101661.53;5257033;28;20036;-78
2023/03/05 09:02:02;;;;;;;5.82;2.90;;;;;;;4.41;100.00;101661.44;5250591;28;20033;-78
2023/03/05 09:04:33;;;;;;;5.97;2.95;;;;;;;4.45;100.00;101652.47;5252934;28;20028;-78
2023/03/05 09:07:04;;;;;;;5.53;2.42;;;;;;;4.50;100.00;101656.66;5255944;28;20032;-78
2023/03/05 09:09:36;;;;;;;7.07;2.30;;;;;;;4.53;100.00;101660.16;5257404;28;20017;-79
2023/03/05 09:12:08;;;;;;;5.70;2.35;;;;;;;4.57;100.00;101653.81;5253429;28;20110;-78
2023/03/05 09:14:39;;;;;;;4.80;2.10;;;;;;;4.57;100.00;101651.19;5258770;28;20390;-78
2023/03/05 09:17:11;;;;;;;5.63;1.88;;;;;;;4.57;100.00;101651.19;5256384;28;20097;-78
2023/03/05 09:19:42;;;;;;;4.60;1.88;;;;;;;4.59;100.00;101651.97;5255779;28;20434;-78
2023/03/05 09:22:14;;;;;;;4.55;1.73;;;;;;;4.61;100.00;101642.19;5256686;28;20044;-78
2023/03/05 09:24:45;;;;;;;4.85;1.50;;;;;;;4.67;100.00;101644.59;5254466;28;20502;-78
2023/03/05 09:27:16;;;;;;;5.13;1.60;;;;;;;4.71;100.00;101647.06;5255791;28;20044;-78
2023/03/05 09:29:48;;;;;;;4.38;1.80;;;;;;;4.79;100.00;101641.47;5251805;28;20025;-78
2023/03/05 09:32:20;;;;;;;4.28;2.00;;;;;;;4.77;100.00;101639.81;5258522;28;20639;-78
2023/03/05 09:34:51;;;;;;;4.13;1.92;;;;;;;4.83;100.00;101635.16;5252974;28;20061;-78
2023/03/05 09:37:22;;;;;;;4.40;1.95;;;;;;;4.90;100.00;101631.31;5251653;28;20581;-78
2023/03/05 09:39:55;;;;;;;5.80;1.88;;;;;;;4.97;100.00;101636.38;5254977;28;20036;-78
2023/03/05 09:42:57;;;;;;;5.40;1.83;;;;;;;5.05;100.00;101621.06;5255209;28;20139;-78
2023/03/05 09:45:58;;;;;;;6.15;2.25;;;;;;;5.17;100.00;101620.53;5254194;28;20025;-78
2023/03/05 09:48:50;;;;;;;7.13;2.50;;;;;;;5.26;100.00;101632.53;5237058;28;20041;-78
2023/03/05 09:51:28;;;;;;;5.32;2.40;;;;;;;5.27;100.00;101624.56;5253021;28;20145;-78
2023/03/05 09:54:05;;;;;;;5.88;2.45;;;;;;;5.33;100.00;101619.91;5253696;28;20459;-78
2023/03/05 09:56:41;;;;;;;4.70;1.98;;;;;;;5.33;100.00;101611.97;5249252;28;20021;-78
2023/03/05 09:59:16;;;;;;;5.38;1.95;;;;;;;5.38;100.00;101617.94;5247733;28;20379;-78
2023/03/05 10:01:51;;;;;;;4.03;2.00;;;;;;;5.46;100.00;101623.75;5245913;28;20435;-78
2023/03/05 10:04:45;;;;;;;6.13;2.05;;;;;;;5.46;100.00;101618.47;5260165;28;20032;-79
2023/03/05 10:07:26;;;;;;;3.47;1.65;;;;;;;5.41;100.00;101607.22;5258619;28;20052;-79
2023/03/05 10:10:13;;;;;;;4.80;1.50;;;;;;;5.41;100.00;101609.88;5251451;28;20029;-79
2023/03/05 10:12:55;;;;;;;5.55;2.13;;;;;;;5.42;100.00;101614.22;5248986;28;20033;-79
2023/03/05 10:15:49;;;;;;;5.60;2.53;;;;;;;5.35;100.00;101607.47;5247941;28;20025;-79
2023/03/05 10:18:23;;;;;;;4.85;2.20;;;;;;;5.34;100.00;101605.75;5239997;28;20033;-79
2023/03/05 10:20:58;;;;;;;4.53;2.38;;;;;;;5.40;100.00;101594.91;5251744;28;20143;-79
2023/03/05 10:23:35;;;;;;;6.68;2.20;;;;;;;5.45;100.00;101588.50;5249925;28;20424;-79
2023/03/05 10:26:23;;;;;;;5.35;2.08;;;;;;;5.48;100.00;101588.38;5253375;28;20051;-79
2023/03/05 10:29:39;;;;;;;5.40;2.00;;;;;;;5.45;100.00;101585.00;5253891;28;20041;-79
2023/03/05 10:32:24;;;;;;;4.63;2.45;;;;;;;5.39;100.00;101586.13;5249527;28;20036;-80
2023/03/05 10:35:38;;;;;;;4.07;2.10;;;;;;;5.39;100.00;101580.81;5242866;28;20044;-79
2023/03/05 10:38:31;;;;;;;4.80;1.80;;;;;;;5.34;100.00;101577.50;5250144;28;20533;-79
2023/03/05 10:41:40;;;;;;;5.32;2.20;;;;;;;5.26;100.00;101583.13;5252618;28;20055;-79
2023/03/05 10:44:17;;;;;;;3.80;2.10;;;;;;;5.15;100.00;101589.81;5253783;28;20637;-79
2023/03/05 10:46:49;;;;;;;3.92;1.38;;;;;;;4.79;100.00;101599.16;5249057;28;20063;-73
2023/03/05 10:49:36;;;;;;;3.92;1.50;;;;;;;4.29;100.00;101597.56;5253426;28;20037;-71
2023/03/05 10:52:14;;;;;;;4.13;1.40;;;;;;;3.94;100.00;101604.19;5255335;28;20033;-70
2023/03/05 10:54:46;;;;;;;3.53;1.20;;;;;;;3.79;100.00;101584.50;5256520;28;20287;-70
2023/03/05 10:57:22;;;;;;;2.28;0.90;;;;;;;3.71;100.00;101579.47;5254637;28;20029;-70
2023/03/05 11:00:00;;;;;;;2.50;0.90;;;;;;;3.77;100.00;101573.13;5248120;28;20384;-71
2023/03/05 11:02:32;;;;;;;3.05;1.15;;;;;;;3.83;100.00;101572.03;5252315;28;20071;-71
2023/03/05 11:05:04;;;;;;;3.33;0.77;;;;;;;3.98;100.00;101570.63;5254669;28;20041;-72
2023/03/05 11:07:36;;;;;;;3.35;1.17;;;;;;;4.10;100.00;101559.59;5256190;28;20040;-71
2023/03/05 11:10:17;;;;;;;2.72;1.02;;;;;;;4.19;100.00;101558.38;5252754;28;20383;-72
2023/03/05 11:12:48;;;;;;;2.92;0.77;;;;;;;4.32;100.00;101555.22;5248729;28;20434;-71
2023/03/05 11:15:28;;;;;;;4.07;0.90;;;;;;;4.38;100.00;101553.25;5253019;28;20040;-72
2023/03/05 11:18:21;;;;;;;6.82;1.38;;;;;;;4.45;100.00;101538.84;5260908;28;20064;-71
2023/03/05 11:21:07;;;;;;;2.95;1.00;;;;;;;4.50;100.00;101545.69;5248754;28;20552;-71
2023/03/05 11:23:38;;;;;;;4.28;0.98;;;;;;;4.55;100.00;101531.44;5253899;28;20039;-71
2023/03/05 11:26:12;;;;;;;2.83;0.95;;;;;;;4.58;100.00;101533.94;5247464;28;20033;-71
2023/03/05 11:29:15;;;;;;;2.67;1.10;;;;;;;4.71;100.00;101529.88;5247962;28;20553;-72
2023/03/05 11:31:46;;;;;;;3.72;1.00;;;;;;;4.87;100.00;101527.47;5246159;28;20033;-72
2023/03/05 11:34:18;;;;;;;4.45;1.20;;;;;;;4.95;100.00;101525.38;5252791;28;20360;-72
2023/03/05 11:36:52;;;;;;;3.72;1.30;;;;;;;5.00;100.00;101520.75;5251037;28;20025;-72
2023/03/05 11:39:24;;;;;;;4.18;1.35;;;;;;;5.09;100.00;101522.16;5247940;28;20040;-72
2023/03/05 11:42:04;;;;;;;5.05;2.05;;;;;;;5.17;100.00;101521.81;5250088;28;20032;-72
2023/03/05 11:44:47;;;;;;;4.32;1.45;;;;;;;5.21;100.00;101518.97;5251419;28;20696;-73
2023/03/05 11:47:30;;;;;;;3.35;1.00;;;;;;;5.23;100.00;101506.53;5253392;28;20036;-72
2023/03/05 11:50:20;;;;;;;3.08;1.20;;;;;;;5.29;100.00;101516.88;5242437;28;20116;-72
2023/03/05 11:53:12;;;;;;;6.35;1.70;;;;;;;5.35;100.00;101504.28;5254644;28;20147;-73